<?xml version='1.0' encoding='UTF-8'?>
<gpx version="1.1" creator="https://www.komoot.de" xmlns="http://www.topografix.com/GPX/1/1" xmlns:xsi="http://www.w3.org/2001/XMLSchema-instance" xsi:schemaLocation="http://www.topografix.com/GPX/1/1 http://www.topografix.com/GPX/1/1/gpx.xsd">
  <metadata>
    <name>PW Dieringhausen 05km</name>
    <author>
      <link href="https://www.komoot.de">
        <text>komoot</text>
        <type>text/html</type>
      </link>
    </author>
  </metadata>
  <trk>
    <name>PW Dieringhausen 05km</name>
    <trkseg>
      <trkpt lat="50.983608" lon="7.526176">
        <ele>175.967078</ele>
        <time>2021-11-13T07:57:50.003Z</time>
      </trkpt>
      <trkpt lat="50.983496" lon="7.526171">
        <ele>175.967078</ele>
        <time>2021-11-13T07:58:05.001Z</time>
      </trkpt>
      <trkpt lat="50.983482" lon="7.526026">
        <ele>175.967078</ele>
        <time>2021-11-13T07:58:30.000Z</time>
      </trkpt>
      <trkpt lat="50.983223" lon="7.525678">
        <ele>175.967078</ele>
        <time>2021-11-13T07:58:39.448Z</time>
      </trkpt>
      <trkpt lat="50.983148" lon="7.525593">
        <ele>175.967078</ele>
        <time>2021-11-13T07:58:45.000Z</time>
      </trkpt>
      <trkpt lat="50.983139" lon="7.525434">
        <ele>175.967078</ele>
        <time>2021-11-13T07:58:53.000Z</time>
      </trkpt>
      <trkpt lat="50.983146" lon="7.525275">
        <ele>175.967078</ele>
        <time>2021-11-13T07:59:01.000Z</time>
      </trkpt>
      <trkpt lat="50.983158" lon="7.525120">
        <ele>175.754751</ele>
        <time>2021-11-13T07:59:09.000Z</time>
      </trkpt>
      <trkpt lat="50.983180" lon="7.524959">
        <ele>175.136127</ele>
        <time>2021-11-13T07:59:18.000Z</time>
      </trkpt>
      <trkpt lat="50.983186" lon="7.524813">
        <ele>174.586738</ele>
        <time>2021-11-13T07:59:25.000Z</time>
      </trkpt>
      <trkpt lat="50.983204" lon="7.524670">
        <ele>174.039152</ele>
        <time>2021-11-13T07:59:33.000Z</time>
      </trkpt>
      <trkpt lat="50.983285" lon="7.524565">
        <ele>173.415567</ele>
        <time>2021-11-13T07:59:43.000Z</time>
      </trkpt>
      <trkpt lat="50.983306" lon="7.524416">
        <ele>172.842232</ele>
        <time>2021-11-13T07:59:50.000Z</time>
      </trkpt>
      <trkpt lat="50.983329" lon="7.524261">
        <ele>172.244268</ele>
        <time>2021-11-13T07:59:58.000Z</time>
      </trkpt>
      <trkpt lat="50.983353" lon="7.524102">
        <ele>171.630311</ele>
        <time>2021-11-13T08:00:06.000Z</time>
      </trkpt>
      <trkpt lat="50.983364" lon="7.523956">
        <ele>171.078179</ele>
        <time>2021-11-13T08:00:13.000Z</time>
      </trkpt>
      <trkpt lat="50.983365" lon="7.523802">
        <ele>170.499888</ele>
        <time>2021-11-13T08:00:19.000Z</time>
      </trkpt>
      <trkpt lat="50.983336" lon="7.523652">
        <ele>169.910687</ele>
        <time>2021-11-13T08:00:27.000Z</time>
      </trkpt>
      <trkpt lat="50.983340" lon="7.523491">
        <ele>169.305671</ele>
        <time>2021-11-13T08:00:34.000Z</time>
      </trkpt>
      <trkpt lat="50.983400" lon="7.523362">
        <ele>168.703424</ele>
        <time>2021-11-13T08:00:41.999Z</time>
      </trkpt>
      <trkpt lat="50.983437" lon="7.523227">
        <ele>168.150553</ele>
        <time>2021-11-13T08:00:49.999Z</time>
      </trkpt>
      <trkpt lat="50.983454" lon="7.523078">
        <ele>167.581955</ele>
        <time>2021-11-13T08:00:57.999Z</time>
      </trkpt>
      <trkpt lat="50.983493" lon="7.522947">
        <ele>167.037831</ele>
        <time>2021-11-13T08:01:05.999Z</time>
      </trkpt>
      <trkpt lat="50.983536" lon="7.522801">
        <ele>166.432585</ele>
        <time>2021-11-13T08:01:12.999Z</time>
      </trkpt>
      <trkpt lat="50.983543" lon="7.522656">
        <ele>165.886523</ele>
        <time>2021-11-13T08:01:19.999Z</time>
      </trkpt>
      <trkpt lat="50.983566" lon="7.522516">
        <ele>165.343229</ele>
        <time>2021-11-13T08:01:27.999Z</time>
      </trkpt>
      <trkpt lat="50.983617" lon="7.522372">
        <ele>165.265294</ele>
        <time>2021-11-13T08:01:34.999Z</time>
      </trkpt>
      <trkpt lat="50.983657" lon="7.522222">
        <ele>165.296392</ele>
        <time>2021-11-13T08:01:41.999Z</time>
      </trkpt>
      <trkpt lat="50.983691" lon="7.522083">
        <ele>165.324860</ele>
        <time>2021-11-13T08:01:48.999Z</time>
      </trkpt>
      <trkpt lat="50.983710" lon="7.521937">
        <ele>165.353320</ele>
        <time>2021-11-13T08:01:54.999Z</time>
      </trkpt>
      <trkpt lat="50.983736" lon="7.521794">
        <ele>165.381735</ele>
        <time>2021-11-13T08:02:00.999Z</time>
      </trkpt>
      <trkpt lat="50.983765" lon="7.521645">
        <ele>165.411507</ele>
        <time>2021-11-13T08:02:06.998Z</time>
      </trkpt>
      <trkpt lat="50.983782" lon="7.521498">
        <ele>165.440039</ele>
        <time>2021-11-13T08:02:12.999Z</time>
      </trkpt>
      <trkpt lat="50.983788" lon="7.521342">
        <ele>165.469875</ele>
        <time>2021-11-13T08:02:20.999Z</time>
      </trkpt>
      <trkpt lat="50.983822" lon="7.521193">
        <ele>165.500130</ele>
        <time>2021-11-13T08:02:27.999Z</time>
      </trkpt>
      <trkpt lat="50.983874" lon="7.521068">
        <ele>165.528732</ele>
        <time>2021-11-13T08:02:35.999Z</time>
      </trkpt>
      <trkpt lat="50.983969" lon="7.521105">
        <ele>165.558393</ele>
        <time>2021-11-13T08:02:43.999Z</time>
      </trkpt>
      <trkpt lat="50.984058" lon="7.521149">
        <ele>165.586658</ele>
        <time>2021-11-13T08:02:50.999Z</time>
      </trkpt>
      <trkpt lat="50.984112" lon="7.521277">
        <ele>165.616072</ele>
        <time>2021-11-13T08:02:59.999Z</time>
      </trkpt>
      <trkpt lat="50.984202" lon="7.521284">
        <ele>165.643396</ele>
        <time>2021-11-13T08:03:06.999Z</time>
      </trkpt>
      <trkpt lat="50.984307" lon="7.521261">
        <ele>165.675537</ele>
        <time>2021-11-13T08:03:13.999Z</time>
      </trkpt>
      <trkpt lat="50.984407" lon="7.521327">
        <ele>165.708374</ele>
        <time>2021-11-13T08:03:20.999Z</time>
      </trkpt>
      <trkpt lat="50.984502" lon="7.521396">
        <ele>165.740050</ele>
        <time>2021-11-13T08:03:25.999Z</time>
      </trkpt>
      <trkpt lat="50.984588" lon="7.521466">
        <ele>165.769353</ele>
        <time>2021-11-13T08:03:31.999Z</time>
      </trkpt>
      <trkpt lat="50.984682" lon="7.521525">
        <ele>166.140948</ele>
        <time>2021-11-13T08:03:42.999Z</time>
      </trkpt>
      <trkpt lat="50.984774" lon="7.521609">
        <ele>166.879231</ele>
        <time>2021-11-13T08:03:50.999Z</time>
      </trkpt>
      <trkpt lat="50.984823" lon="7.521748">
        <ele>167.576986</ele>
        <time>2021-11-13T08:03:55.999Z</time>
      </trkpt>
      <trkpt lat="50.984793" lon="7.521885">
        <ele>168.212294</ele>
        <time>2021-11-13T08:04:01.999Z</time>
      </trkpt>
      <trkpt lat="50.984737" lon="7.522005">
        <ele>168.866542</ele>
        <time>2021-11-13T08:04:09.999Z</time>
      </trkpt>
      <trkpt lat="50.984682" lon="7.522136">
        <ele>169.556203</ele>
        <time>2021-11-13T08:04:17.999Z</time>
      </trkpt>
      <trkpt lat="50.984625" lon="7.522253">
        <ele>170.204178</ele>
        <time>2021-11-13T08:04:24.999Z</time>
      </trkpt>
      <trkpt lat="50.984570" lon="7.522367">
        <ele>170.833252</ele>
        <time>2021-11-13T08:04:32.999Z</time>
      </trkpt>
      <trkpt lat="50.984529" lon="7.522497">
        <ele>171.470097</ele>
        <time>2021-11-13T08:04:40.999Z</time>
      </trkpt>
      <trkpt lat="50.984485" lon="7.522638">
        <ele>172.159372</ele>
        <time>2021-11-13T08:04:49.999Z</time>
      </trkpt>
      <trkpt lat="50.984497" lon="7.522790">
        <ele>172.830332</ele>
        <time>2021-11-13T08:04:58.998Z</time>
      </trkpt>
      <trkpt lat="50.984592" lon="7.522811">
        <ele>173.497655</ele>
        <time>2021-11-13T08:05:09.999Z</time>
      </trkpt>
      <trkpt lat="50.984687" lon="7.522792">
        <ele>174.163827</ele>
        <time>2021-11-13T08:05:19.000Z</time>
      </trkpt>
      <trkpt lat="50.984760" lon="7.522707">
        <ele>174.793552</ele>
        <time>2021-11-13T08:05:28.000Z</time>
      </trkpt>
      <trkpt lat="50.984763" lon="7.522543">
        <ele>175.512155</ele>
        <time>2021-11-13T08:05:36.000Z</time>
      </trkpt>
      <trkpt lat="50.984767" lon="7.522400">
        <ele>176.139095</ele>
        <time>2021-11-13T08:05:43.000Z</time>
      </trkpt>
      <trkpt lat="50.984819" lon="7.522272">
        <ele>176.806319</ele>
        <time>2021-11-13T08:05:51.000Z</time>
      </trkpt>
      <trkpt lat="50.984888" lon="7.522157">
        <ele>177.502133</ele>
        <time>2021-11-13T08:06:00.000Z</time>
      </trkpt>
      <trkpt lat="50.984946" lon="7.522032">
        <ele>178.182261</ele>
        <time>2021-11-13T08:06:10.000Z</time>
      </trkpt>
      <trkpt lat="50.984978" lon="7.521883">
        <ele>179.038033</ele>
        <time>2021-11-13T08:06:21.000Z</time>
      </trkpt>
      <trkpt lat="50.985039" lon="7.521763">
        <ele>179.909416</ele>
        <time>2021-11-13T08:06:28.999Z</time>
      </trkpt>
      <trkpt lat="50.985117" lon="7.521688">
        <ele>180.727672</ele>
        <time>2021-11-13T08:06:41.000Z</time>
      </trkpt>
      <trkpt lat="50.985174" lon="7.521556">
        <ele>181.632000</ele>
        <time>2021-11-13T08:06:49.000Z</time>
      </trkpt>
      <trkpt lat="50.985222" lon="7.521410">
        <ele>182.562550</ele>
        <time>2021-11-13T08:06:57.000Z</time>
      </trkpt>
      <trkpt lat="50.985265" lon="7.521275">
        <ele>183.417312</ele>
        <time>2021-11-13T08:07:12.000Z</time>
      </trkpt>
      <trkpt lat="50.985335" lon="7.521171">
        <ele>184.277466</ele>
        <time>2021-11-13T08:07:21.000Z</time>
      </trkpt>
      <trkpt lat="50.985345" lon="7.521028">
        <ele>185.090323</ele>
        <time>2021-11-13T08:07:29.000Z</time>
      </trkpt>
      <trkpt lat="50.985413" lon="7.520921">
        <ele>185.949299</ele>
        <time>2021-11-13T08:07:36.000Z</time>
      </trkpt>
      <trkpt lat="50.985448" lon="7.520780">
        <ele>186.805577</ele>
        <time>2021-11-13T08:07:41.000Z</time>
      </trkpt>
      <trkpt lat="50.985467" lon="7.520639">
        <ele>187.620208</ele>
        <time>2021-11-13T08:07:47.000Z</time>
      </trkpt>
      <trkpt lat="50.985524" lon="7.520523">
        <ele>188.451564</ele>
        <time>2021-11-13T08:07:54.001Z</time>
      </trkpt>
      <trkpt lat="50.985562" lon="7.520380">
        <ele>189.328477</ele>
        <time>2021-11-13T08:08:03.001Z</time>
      </trkpt>
      <trkpt lat="50.985624" lon="7.520273">
        <ele>190.150070</ele>
        <time>2021-11-13T08:08:10.001Z</time>
      </trkpt>
      <trkpt lat="50.985688" lon="7.520160">
        <ele>191.008814</ele>
        <time>2021-11-13T08:08:27.001Z</time>
      </trkpt>
      <trkpt lat="50.985748" lon="7.520038">
        <ele>191.883455</ele>
        <time>2021-11-13T08:08:36.001Z</time>
      </trkpt>
      <trkpt lat="50.985776" lon="7.519898">
        <ele>192.713344</ele>
        <time>2021-11-13T08:08:44.001Z</time>
      </trkpt>
      <trkpt lat="50.985779" lon="7.519754">
        <ele>193.527318</ele>
        <time>2021-11-13T08:08:54.001Z</time>
      </trkpt>
      <trkpt lat="50.985803" lon="7.519616">
        <ele>194.336155</ele>
        <time>2021-11-13T08:09:04.001Z</time>
      </trkpt>
      <trkpt lat="50.985848" lon="7.519485">
        <ele>195.161584</ele>
        <time>2021-11-13T08:09:14.001Z</time>
      </trkpt>
      <trkpt lat="50.985870" lon="7.519341">
        <ele>195.978714</ele>
        <time>2021-11-13T08:09:21.001Z</time>
      </trkpt>
      <trkpt lat="50.985906" lon="7.519202">
        <ele>196.807556</ele>
        <time>2021-11-13T08:09:29.001Z</time>
      </trkpt>
      <trkpt lat="50.985949" lon="7.519066">
        <ele>197.646797</ele>
        <time>2021-11-13T08:09:37.001Z</time>
      </trkpt>
      <trkpt lat="50.985940" lon="7.518914">
        <ele>198.488688</ele>
        <time>2021-11-13T08:09:48.001Z</time>
      </trkpt>
      <trkpt lat="50.985965" lon="7.518772">
        <ele>199.301783</ele>
        <time>2021-11-13T08:09:56.001Z</time>
      </trkpt>
      <trkpt lat="50.985989" lon="7.518628">
        <ele>200.123219</ele>
        <time>2021-11-13T08:10:03.001Z</time>
      </trkpt>
      <trkpt lat="50.986017" lon="7.518485">
        <ele>200.949045</ele>
        <time>2021-11-13T08:10:12.001Z</time>
      </trkpt>
      <trkpt lat="50.986046" lon="7.518345">
        <ele>201.761784</ele>
        <time>2021-11-13T08:10:20.001Z</time>
      </trkpt>
      <trkpt lat="50.986074" lon="7.518204">
        <ele>202.577085</ele>
        <time>2021-11-13T08:10:27.001Z</time>
      </trkpt>
      <trkpt lat="50.986129" lon="7.518077">
        <ele>203.427135</ele>
        <time>2021-11-13T08:10:36.001Z</time>
      </trkpt>
      <trkpt lat="50.986178" lon="7.517942">
        <ele>204.286458</ele>
        <time>2021-11-13T08:10:47.001Z</time>
      </trkpt>
      <trkpt lat="50.986243" lon="7.517835">
        <ele>205.106429</ele>
        <time>2021-11-13T08:10:56.001Z</time>
      </trkpt>
      <trkpt lat="50.986311" lon="7.517733">
        <ele>205.925692</ele>
        <time>2021-11-13T08:11:02.001Z</time>
      </trkpt>
      <trkpt lat="50.986385" lon="7.517641">
        <ele>206.748842</ele>
        <time>2021-11-13T08:11:11.001Z</time>
      </trkpt>
      <trkpt lat="50.986385" lon="7.517484">
        <ele>207.614598</ele>
        <time>2021-11-13T08:11:19.001Z</time>
      </trkpt>
      <trkpt lat="50.986317" lon="7.517371">
        <ele>208.476634</ele>
        <time>2021-11-13T08:11:26.001Z</time>
      </trkpt>
      <trkpt lat="50.986241" lon="7.517282">
        <ele>209.303729</ele>
        <time>2021-11-13T08:11:35.001Z</time>
      </trkpt>
      <trkpt lat="50.986161" lon="7.517203">
        <ele>210.128886</ele>
        <time>2021-11-13T08:11:42.001Z</time>
      </trkpt>
      <trkpt lat="50.986111" lon="7.517073">
        <ele>210.653357</ele>
        <time>2021-11-13T08:11:50.001Z</time>
      </trkpt>
      <trkpt lat="50.986077" lon="7.516932">
        <ele>211.146029</ele>
        <time>2021-11-13T08:11:59.001Z</time>
      </trkpt>
      <trkpt lat="50.986090" lon="7.516764">
        <ele>211.698328</ele>
        <time>2021-11-13T08:12:09.000Z</time>
      </trkpt>
      <trkpt lat="50.986116" lon="7.516625">
        <ele>212.171474</ele>
        <time>2021-11-13T08:12:19.000Z</time>
      </trkpt>
      <trkpt lat="50.986134" lon="7.516479">
        <ele>212.656912</ele>
        <time>2021-11-13T08:12:32.000Z</time>
      </trkpt>
      <trkpt lat="50.986141" lon="7.516336">
        <ele>213.124919</ele>
        <time>2021-11-13T08:12:40.000Z</time>
      </trkpt>
      <trkpt lat="50.986160" lon="7.516193">
        <ele>213.601798</ele>
        <time>2021-11-13T08:12:49.000Z</time>
      </trkpt>
      <trkpt lat="50.986198" lon="7.516046">
        <ele>214.120315</ele>
        <time>2021-11-13T08:12:59.000Z</time>
      </trkpt>
      <trkpt lat="50.986203" lon="7.515901">
        <ele>214.594148</ele>
        <time>2021-11-13T08:13:06.000Z</time>
      </trkpt>
      <trkpt lat="50.986219" lon="7.515754">
        <ele>215.080915</ele>
        <time>2021-11-13T08:13:14.000Z</time>
      </trkpt>
      <trkpt lat="50.986234" lon="7.515612">
        <ele>215.550728</ele>
        <time>2021-11-13T08:13:22.000Z</time>
      </trkpt>
      <trkpt lat="50.986237" lon="7.515458">
        <ele>216.053459</ele>
        <time>2021-11-13T08:13:31.000Z</time>
      </trkpt>
      <trkpt lat="50.986251" lon="7.515307">
        <ele>216.551475</ele>
        <time>2021-11-13T08:13:39.000Z</time>
      </trkpt>
      <trkpt lat="50.986278" lon="7.515164">
        <ele>217.038609</ele>
        <time>2021-11-13T08:13:47.000Z</time>
      </trkpt>
      <trkpt lat="50.986304" lon="7.515014">
        <ele>217.546261</ele>
        <time>2021-11-13T08:13:55.000Z</time>
      </trkpt>
      <trkpt lat="50.986311" lon="7.514849">
        <ele>218.085864</ele>
        <time>2021-11-13T08:14:02.000Z</time>
      </trkpt>
      <trkpt lat="50.986355" lon="7.514721">
        <ele>218.561730</ele>
        <time>2021-11-13T08:14:11.000Z</time>
      </trkpt>
      <trkpt lat="50.986415" lon="7.514606">
        <ele>219.049091</ele>
        <time>2021-11-13T08:14:19.000Z</time>
      </trkpt>
      <trkpt lat="50.986471" lon="7.514483">
        <ele>219.549463</ele>
        <time>2021-11-13T08:14:26.000Z</time>
      </trkpt>
      <trkpt lat="50.986513" lon="7.514354">
        <ele>220.117405</ele>
        <time>2021-11-13T08:14:33.000Z</time>
      </trkpt>
      <trkpt lat="50.986580" lon="7.514237">
        <ele>220.735932</ele>
        <time>2021-11-13T08:14:41.000Z</time>
      </trkpt>
      <trkpt lat="50.986642" lon="7.514117">
        <ele>221.343020</ele>
        <time>2021-11-13T08:14:49.001Z</time>
      </trkpt>
      <trkpt lat="50.986701" lon="7.514000">
        <ele>221.929257</ele>
        <time>2021-11-13T08:14:57.001Z</time>
      </trkpt>
      <trkpt lat="50.986749" lon="7.513876">
        <ele>222.498512</ele>
        <time>2021-11-13T08:15:04.001Z</time>
      </trkpt>
      <trkpt lat="50.986830" lon="7.513777">
        <ele>223.133394</ele>
        <time>2021-11-13T08:15:13.001Z</time>
      </trkpt>
      <trkpt lat="50.986887" lon="7.513665">
        <ele>223.696608</ele>
        <time>2021-11-13T08:15:21.001Z</time>
      </trkpt>
      <trkpt lat="50.986955" lon="7.513552">
        <ele>224.307928</ele>
        <time>2021-11-13T08:15:28.001Z</time>
      </trkpt>
      <trkpt lat="50.987028" lon="7.513460">
        <ele>224.886794</ele>
        <time>2021-11-13T08:15:36.001Z</time>
      </trkpt>
      <trkpt lat="50.987106" lon="7.513387">
        <ele>225.449181</ele>
        <time>2021-11-13T08:15:42.001Z</time>
      </trkpt>
      <trkpt lat="50.987193" lon="7.513307">
        <ele>226.073653</ele>
        <time>2021-11-13T08:15:49.001Z</time>
      </trkpt>
      <trkpt lat="50.987273" lon="7.513234">
        <ele>226.646779</ele>
        <time>2021-11-13T08:15:56.001Z</time>
      </trkpt>
      <trkpt lat="50.987328" lon="7.513119">
        <ele>227.211558</ele>
        <time>2021-11-13T08:16:07.001Z</time>
      </trkpt>
      <trkpt lat="50.987416" lon="7.513047">
        <ele>227.826475</ele>
        <time>2021-11-13T08:16:13.001Z</time>
      </trkpt>
      <trkpt lat="50.987507" lon="7.513054">
        <ele>228.392444</ele>
        <time>2021-11-13T08:16:17.001Z</time>
      </trkpt>
      <trkpt lat="50.987609" lon="7.513061">
        <ele>229.026675</ele>
        <time>2021-11-13T08:16:23.001Z</time>
      </trkpt>
      <trkpt lat="50.987710" lon="7.513060">
        <ele>229.654116</ele>
        <time>2021-11-13T08:16:30.001Z</time>
      </trkpt>
      <trkpt lat="50.987800" lon="7.513097">
        <ele>230.231628</ele>
        <time>2021-11-13T08:16:38.001Z</time>
      </trkpt>
      <trkpt lat="50.987900" lon="7.513132">
        <ele>231.009753</ele>
        <time>2021-11-13T08:16:44.001Z</time>
      </trkpt>
      <trkpt lat="50.987991" lon="7.513180">
        <ele>232.087608</ele>
        <time>2021-11-13T08:16:50.001Z</time>
      </trkpt>
      <trkpt lat="50.988088" lon="7.513217">
        <ele>233.208988</ele>
        <time>2021-11-13T08:16:57.001Z</time>
      </trkpt>
      <trkpt lat="50.988176" lon="7.513259">
        <ele>234.241886</ele>
        <time>2021-11-13T08:17:10.001Z</time>
      </trkpt>
      <trkpt lat="50.988274" lon="7.513327">
        <ele>235.444015</ele>
        <time>2021-11-13T08:17:19.001Z</time>
      </trkpt>
      <trkpt lat="50.988364" lon="7.513371">
        <ele>236.502539</ele>
        <time>2021-11-13T08:17:24.001Z</time>
      </trkpt>
      <trkpt lat="50.988457" lon="7.513409">
        <ele>237.581989</ele>
        <time>2021-11-13T08:17:31.001Z</time>
      </trkpt>
      <trkpt lat="50.988549" lon="7.513464">
        <ele>238.686975</ele>
        <time>2021-11-13T08:17:38.001Z</time>
      </trkpt>
      <trkpt lat="50.988635" lon="7.513506">
        <ele>239.698361</ele>
        <time>2021-11-13T08:17:55.001Z</time>
      </trkpt>
      <trkpt lat="50.988744" lon="7.513530">
        <ele>240.935355</ele>
        <time>2021-11-13T08:18:04.001Z</time>
      </trkpt>
      <trkpt lat="50.988833" lon="7.513590">
        <ele>242.022171</ele>
        <time>2021-11-13T08:18:10.001Z</time>
      </trkpt>
      <trkpt lat="50.988921" lon="7.513644">
        <ele>243.082621</ele>
        <time>2021-11-13T08:18:17.001Z</time>
      </trkpt>
      <trkpt lat="50.989014" lon="7.513697">
        <ele>244.193276</ele>
        <time>2021-11-13T08:18:23.001Z</time>
      </trkpt>
      <trkpt lat="50.989105" lon="7.513776">
        <ele>245.358989</ele>
        <time>2021-11-13T08:18:30.001Z</time>
      </trkpt>
      <trkpt lat="50.989179" lon="7.513881">
        <ele>246.474323</ele>
        <time>2021-11-13T08:18:37.001Z</time>
      </trkpt>
      <trkpt lat="50.989257" lon="7.513965">
        <ele>247.533602</ele>
        <time>2021-11-13T08:18:46.001Z</time>
      </trkpt>
      <trkpt lat="50.989321" lon="7.514078">
        <ele>248.609197</ele>
        <time>2021-11-13T08:18:53.001Z</time>
      </trkpt>
      <trkpt lat="50.989401" lon="7.514146">
        <ele>249.629116</ele>
        <time>2021-11-13T08:19:00.001Z</time>
      </trkpt>
      <trkpt lat="50.989462" lon="7.514273">
        <ele>250.759489</ele>
        <time>2021-11-13T08:19:08.001Z</time>
      </trkpt>
      <trkpt lat="50.989535" lon="7.514364">
        <ele>251.244769</ele>
        <time>2021-11-13T08:19:15.000Z</time>
      </trkpt>
      <trkpt lat="50.989589" lon="7.514478">
        <ele>251.622649</ele>
        <time>2021-11-13T08:19:22.000Z</time>
      </trkpt>
      <trkpt lat="50.989623" lon="7.514615">
        <ele>252.012688</ele>
        <time>2021-11-13T08:19:28.000Z</time>
      </trkpt>
      <trkpt lat="50.989647" lon="7.514767">
        <ele>252.427744</ele>
        <time>2021-11-13T08:19:34.000Z</time>
      </trkpt>
      <trkpt lat="50.989715" lon="7.514878">
        <ele>252.837984</ele>
        <time>2021-11-13T08:19:42.000Z</time>
      </trkpt>
      <trkpt lat="50.989732" lon="7.515024">
        <ele>253.231236</ele>
        <time>2021-11-13T08:19:48.000Z</time>
      </trkpt>
      <trkpt lat="50.989801" lon="7.515137">
        <ele>253.648207</ele>
        <time>2021-11-13T08:19:57.000Z</time>
      </trkpt>
      <trkpt lat="50.989855" lon="7.515272">
        <ele>254.071850</ele>
        <time>2021-11-13T08:20:04.000Z</time>
      </trkpt>
      <trkpt lat="50.989913" lon="7.515388">
        <ele>254.464215</ele>
        <time>2021-11-13T08:20:11.000Z</time>
      </trkpt>
      <trkpt lat="50.989957" lon="7.515526">
        <ele>254.873931</ele>
        <time>2021-11-13T08:20:22.000Z</time>
      </trkpt>
      <trkpt lat="50.990026" lon="7.515639">
        <ele>255.290901</ele>
        <time>2021-11-13T08:20:31.000Z</time>
      </trkpt>
      <trkpt lat="50.990084" lon="7.515772">
        <ele>255.719438</ele>
        <time>2021-11-13T08:20:39.000Z</time>
      </trkpt>
      <trkpt lat="50.990142" lon="7.515905">
        <ele>256.147974</ele>
        <time>2021-11-13T08:20:46.000Z</time>
      </trkpt>
      <trkpt lat="50.990197" lon="7.516018">
        <ele>256.526297</ele>
        <time>2021-11-13T08:20:55.000Z</time>
      </trkpt>
      <trkpt lat="50.990239" lon="7.516151">
        <ele>256.920398</ele>
        <time>2021-11-13T08:21:03.000Z</time>
      </trkpt>
      <trkpt lat="50.990288" lon="7.516274">
        <ele>257.305930</ele>
        <time>2021-11-13T08:21:11.000Z</time>
      </trkpt>
      <trkpt lat="50.990381" lon="7.516319">
        <ele>257.714993</ele>
        <time>2021-11-13T08:21:17.000Z</time>
      </trkpt>
      <trkpt lat="50.990483" lon="7.516322">
        <ele>258.144250</ele>
        <time>2021-11-13T08:21:23.000Z</time>
      </trkpt>
      <trkpt lat="50.990579" lon="7.516269">
        <ele>258.551187</ele>
        <time>2021-11-13T08:21:31.001Z</time>
      </trkpt>
      <trkpt lat="50.990635" lon="7.516131">
        <ele>258.888944</ele>
        <time>2021-11-13T08:21:37.001Z</time>
      </trkpt>
      <trkpt lat="50.990704" lon="7.516016">
        <ele>259.215763</ele>
        <time>2021-11-13T08:21:46.001Z</time>
      </trkpt>
      <trkpt lat="50.990726" lon="7.515862">
        <ele>259.540609</ele>
        <time>2021-11-13T08:21:54.001Z</time>
      </trkpt>
      <trkpt lat="50.990768" lon="7.515729">
        <ele>259.846700</ele>
        <time>2021-11-13T08:22:01.001Z</time>
      </trkpt>
      <trkpt lat="50.990806" lon="7.515589">
        <ele>260.160325</ele>
        <time>2021-11-13T08:22:09.001Z</time>
      </trkpt>
      <trkpt lat="50.990824" lon="7.515415">
        <ele>260.523057</ele>
        <time>2021-11-13T08:22:23.001Z</time>
      </trkpt>
      <trkpt lat="50.990864" lon="7.515287">
        <ele>260.817026</ele>
        <time>2021-11-13T08:22:31.001Z</time>
      </trkpt>
      <trkpt lat="50.990913" lon="7.515156">
        <ele>261.130491</ele>
        <time>2021-11-13T08:22:40.001Z</time>
      </trkpt>
      <trkpt lat="50.990966" lon="7.515029">
        <ele>261.443941</ele>
        <time>2021-11-13T08:22:49.001Z</time>
      </trkpt>
      <trkpt lat="50.991012" lon="7.514894">
        <ele>261.759724</ele>
        <time>2021-11-13T08:22:57.001Z</time>
      </trkpt>
      <trkpt lat="50.991043" lon="7.514746">
        <ele>262.080583</ele>
        <time>2021-11-13T08:23:03.001Z</time>
      </trkpt>
      <trkpt lat="50.991075" lon="7.514610">
        <ele>262.379250</ele>
        <time>2021-11-13T08:23:10.001Z</time>
      </trkpt>
      <trkpt lat="50.991127" lon="7.514481">
        <ele>262.694362</ele>
        <time>2021-11-13T08:23:19.001Z</time>
      </trkpt>
      <trkpt lat="50.991167" lon="7.514351">
        <ele>262.992020</ele>
        <time>2021-11-13T08:23:27.001Z</time>
      </trkpt>
      <trkpt lat="50.991214" lon="7.514214">
        <ele>263.312977</ele>
        <time>2021-11-13T08:23:36.001Z</time>
      </trkpt>
      <trkpt lat="50.991237" lon="7.514062">
        <ele>263.634556</ele>
        <time>2021-11-13T08:23:48.001Z</time>
      </trkpt>
      <trkpt lat="50.991268" lon="7.513912">
        <ele>263.959320</ele>
        <time>2021-11-13T08:23:56.001Z</time>
      </trkpt>
      <trkpt lat="50.991285" lon="7.513765">
        <ele>264.266768</ele>
        <time>2021-11-13T08:24:02.001Z</time>
      </trkpt>
      <trkpt lat="50.991320" lon="7.513629">
        <ele>264.826582</ele>
        <time>2021-11-13T08:24:11.001Z</time>
      </trkpt>
      <trkpt lat="50.991368" lon="7.513492">
        <ele>265.541517</ele>
        <time>2021-11-13T08:24:20.001Z</time>
      </trkpt>
      <trkpt lat="50.991400" lon="7.513357">
        <ele>266.199279</ele>
        <time>2021-11-13T08:24:27.001Z</time>
      </trkpt>
      <trkpt lat="50.991444" lon="7.513222">
        <ele>266.892466</ele>
        <time>2021-11-13T08:24:34.001Z</time>
      </trkpt>
      <trkpt lat="50.991506" lon="7.513103">
        <ele>267.596839</ele>
        <time>2021-11-13T08:24:42.001Z</time>
      </trkpt>
      <trkpt lat="50.991559" lon="7.512979">
        <ele>268.280276</ele>
        <time>2021-11-13T08:24:50.001Z</time>
      </trkpt>
      <trkpt lat="50.991612" lon="7.512851">
        <ele>268.978876</ele>
        <time>2021-11-13T08:24:59.001Z</time>
      </trkpt>
      <trkpt lat="50.991656" lon="7.512712">
        <ele>269.688307</ele>
        <time>2021-11-13T08:25:07.001Z</time>
      </trkpt>
      <trkpt lat="50.991695" lon="7.512574">
        <ele>270.378056</ele>
        <time>2021-11-13T08:25:13.001Z</time>
      </trkpt>
      <trkpt lat="50.991749" lon="7.512441">
        <ele>271.099713</ele>
        <time>2021-11-13T08:25:21.001Z</time>
      </trkpt>
      <trkpt lat="50.991814" lon="7.512316">
        <ele>271.839014</ele>
        <time>2021-11-13T08:25:29.001Z</time>
      </trkpt>
      <trkpt lat="50.991876" lon="7.512189">
        <ele>272.571852</ele>
        <time>2021-11-13T08:25:39.001Z</time>
      </trkpt>
      <trkpt lat="50.991954" lon="7.512098">
        <ele>273.272876</ele>
        <time>2021-11-13T08:25:48.002Z</time>
      </trkpt>
      <trkpt lat="50.992042" lon="7.512044">
        <ele>273.956255</ele>
        <time>2021-11-13T08:26:03.002Z</time>
      </trkpt>
      <trkpt lat="50.992007" lon="7.512191">
        <ele>274.672873</ele>
        <time>2021-11-13T08:26:13.002Z</time>
      </trkpt>
      <trkpt lat="50.991952" lon="7.512309">
        <ele>275.342371</ele>
        <time>2021-11-13T08:26:22.002Z</time>
      </trkpt>
      <trkpt lat="50.991929" lon="7.512449">
        <ele>276.002108</ele>
        <time>2021-11-13T08:26:31.000Z</time>
      </trkpt>
      <trkpt lat="50.991882" lon="7.512573">
        <ele>276.662104</ele>
        <time>2021-11-13T08:26:39.000Z</time>
      </trkpt>
      <trkpt lat="50.991855" lon="7.512712">
        <ele>277.325390</ele>
        <time>2021-11-13T08:26:49.000Z</time>
      </trkpt>
      <trkpt lat="50.991841" lon="7.512870">
        <ele>277.701514</ele>
        <time>2021-11-13T08:26:57.000Z</time>
      </trkpt>
      <trkpt lat="50.991793" lon="7.512998">
        <ele>278.022467</ele>
        <time>2021-11-13T08:27:04.000Z</time>
      </trkpt>
      <trkpt lat="50.991744" lon="7.513124">
        <ele>278.341512</ele>
        <time>2021-11-13T08:27:11.000Z</time>
      </trkpt>
      <trkpt lat="50.991715" lon="7.513278">
        <ele>278.687776</ele>
        <time>2021-11-13T08:27:19.000Z</time>
      </trkpt>
      <trkpt lat="50.991680" lon="7.513413">
        <ele>279.002286</ele>
        <time>2021-11-13T08:27:26.000Z</time>
      </trkpt>
      <trkpt lat="50.991661" lon="7.513565">
        <ele>279.336107</ele>
        <time>2021-11-13T08:27:34.000Z</time>
      </trkpt>
      <trkpt lat="50.991630" lon="7.513699">
        <ele>279.643640</ele>
        <time>2021-11-13T08:27:41.000Z</time>
      </trkpt>
      <trkpt lat="50.991600" lon="7.513855">
        <ele>279.995019</ele>
        <time>2021-11-13T08:27:49.000Z</time>
      </trkpt>
      <trkpt lat="50.991591" lon="7.514001">
        <ele>280.311027</ele>
        <time>2021-11-13T08:27:56.000Z</time>
      </trkpt>
      <trkpt lat="50.991560" lon="7.514147">
        <ele>280.642942</ele>
        <time>2021-11-13T08:28:03.000Z</time>
      </trkpt>
      <trkpt lat="50.991515" lon="7.514289">
        <ele>280.985410</ele>
        <time>2021-11-13T08:28:10.000Z</time>
      </trkpt>
      <trkpt lat="50.991487" lon="7.514435">
        <ele>281.314188</ele>
        <time>2021-11-13T08:28:17.000Z</time>
      </trkpt>
      <trkpt lat="50.991439" lon="7.514570">
        <ele>281.648187</ele>
        <time>2021-11-13T08:28:24.000Z</time>
      </trkpt>
      <trkpt lat="50.991409" lon="7.514712">
        <ele>281.970845</ele>
        <time>2021-11-13T08:28:31.000Z</time>
      </trkpt>
      <trkpt lat="50.991385" lon="7.514857">
        <ele>282.293814</ele>
        <time>2021-11-13T08:28:38.000Z</time>
      </trkpt>
      <trkpt lat="50.991359" lon="7.514997">
        <ele>282.608247</ele>
        <time>2021-11-13T08:28:45.001Z</time>
      </trkpt>
      <trkpt lat="50.991324" lon="7.515129">
        <ele>282.916793</ele>
        <time>2021-11-13T08:28:52.001Z</time>
      </trkpt>
      <trkpt lat="50.991295" lon="7.515269">
        <ele>283.234285</ele>
        <time>2021-11-13T08:28:59.001Z</time>
      </trkpt>
      <trkpt lat="50.991259" lon="7.515415">
        <ele>283.572377</ele>
        <time>2021-11-13T08:29:07.001Z</time>
      </trkpt>
      <trkpt lat="50.991233" lon="7.515555">
        <ele>283.890153</ele>
        <time>2021-11-13T08:29:14.001Z</time>
      </trkpt>
      <trkpt lat="50.991234" lon="7.515704">
        <ele>284.214553</ele>
        <time>2021-11-13T08:29:22.001Z</time>
      </trkpt>
      <trkpt lat="50.991200" lon="7.515843">
        <ele>284.539209</ele>
        <time>2021-11-13T08:29:29.001Z</time>
      </trkpt>
      <trkpt lat="50.991185" lon="7.515994">
        <ele>284.872013</ele>
        <time>2021-11-13T08:29:37.001Z</time>
      </trkpt>
      <trkpt lat="50.991152" lon="7.516130">
        <ele>285.189331</ele>
        <time>2021-11-13T08:29:44.001Z</time>
      </trkpt>
      <trkpt lat="50.991112" lon="7.516264">
        <ele>285.512199</ele>
        <time>2021-11-13T08:29:51.001Z</time>
      </trkpt>
      <trkpt lat="50.991074" lon="7.516411">
        <ele>285.858164</ele>
        <time>2021-11-13T08:29:58.001Z</time>
      </trkpt>
      <trkpt lat="50.991049" lon="7.516550">
        <ele>286.172887</ele>
        <time>2021-11-13T08:30:05.001Z</time>
      </trkpt>
      <trkpt lat="50.991022" lon="7.516697">
        <ele>286.506262</ele>
        <time>2021-11-13T08:30:12.001Z</time>
      </trkpt>
      <trkpt lat="50.990998" lon="7.516850">
        <ele>286.849540</ele>
        <time>2021-11-13T08:30:20.001Z</time>
      </trkpt>
      <trkpt lat="50.990958" lon="7.516996">
        <ele>287.196195</ele>
        <time>2021-11-13T08:30:28.001Z</time>
      </trkpt>
      <trkpt lat="50.990916" lon="7.517128">
        <ele>287.518197</ele>
        <time>2021-11-13T08:30:34.001Z</time>
      </trkpt>
      <trkpt lat="50.990887" lon="7.517284">
        <ele>287.872322</ele>
        <time>2021-11-13T08:30:42.001Z</time>
      </trkpt>
      <trkpt lat="50.990874" lon="7.517428">
        <ele>288.189027</ele>
        <time>2021-11-13T08:30:50.001Z</time>
      </trkpt>
      <trkpt lat="50.990831" lon="7.517557">
        <ele>288.506819</ele>
        <time>2021-11-13T08:30:57.001Z</time>
      </trkpt>
      <trkpt lat="50.990805" lon="7.517697">
        <ele>288.824598</ele>
        <time>2021-11-13T08:31:05.001Z</time>
      </trkpt>
      <trkpt lat="50.990771" lon="7.517834">
        <ele>289.145203</ele>
        <time>2021-11-13T08:31:12.001Z</time>
      </trkpt>
      <trkpt lat="50.990713" lon="7.517971">
        <ele>289.504648</ele>
        <time>2021-11-13T08:31:18.001Z</time>
      </trkpt>
      <trkpt lat="50.990657" lon="7.518096">
        <ele>289.760785</ele>
        <time>2021-11-13T08:31:24.001Z</time>
      </trkpt>
      <trkpt lat="50.990604" lon="7.518225">
        <ele>289.749218</ele>
        <time>2021-11-13T08:31:35.001Z</time>
      </trkpt>
      <trkpt lat="50.990569" lon="7.518374">
        <ele>289.737276</ele>
        <time>2021-11-13T08:31:44.001Z</time>
      </trkpt>
      <trkpt lat="50.990546" lon="7.518525">
        <ele>289.725610</ele>
        <time>2021-11-13T08:31:52.001Z</time>
      </trkpt>
      <trkpt lat="50.990497" lon="7.518664">
        <ele>289.713647</ele>
        <time>2021-11-13T08:31:58.001Z</time>
      </trkpt>
      <trkpt lat="50.990454" lon="7.518812">
        <ele>289.701407</ele>
        <time>2021-11-13T08:32:06.001Z</time>
      </trkpt>
      <trkpt lat="50.990418" lon="7.518950">
        <ele>289.690190</ele>
        <time>2021-11-13T08:32:13.001Z</time>
      </trkpt>
      <trkpt lat="50.990344" lon="7.519055">
        <ele>289.678354</ele>
        <time>2021-11-13T08:32:20.001Z</time>
      </trkpt>
      <trkpt lat="50.990250" lon="7.519012">
        <ele>289.666684</ele>
        <time>2021-11-13T08:32:27.001Z</time>
      </trkpt>
      <trkpt lat="50.990156" lon="7.518959">
        <ele>289.654785</ele>
        <time>2021-11-13T08:32:34.001Z</time>
      </trkpt>
      <trkpt lat="50.990056" lon="7.518908">
        <ele>289.642256</ele>
        <time>2021-11-13T08:32:41.001Z</time>
      </trkpt>
      <trkpt lat="50.989968" lon="7.518838">
        <ele>289.630516</ele>
        <time>2021-11-13T08:32:48.001Z</time>
      </trkpt>
      <trkpt lat="50.989903" lon="7.518730">
        <ele>289.619295</ele>
        <time>2021-11-13T08:32:55.001Z</time>
      </trkpt>
      <trkpt lat="50.989844" lon="7.518608">
        <ele>289.607743</ele>
        <time>2021-11-13T08:33:03.001Z</time>
      </trkpt>
      <trkpt lat="50.989782" lon="7.518481">
        <ele>289.595674</ele>
        <time>2021-11-13T08:33:12.002Z</time>
      </trkpt>
      <trkpt lat="50.989719" lon="7.518371">
        <ele>289.584506</ele>
        <time>2021-11-13T08:33:20.002Z</time>
      </trkpt>
      <trkpt lat="50.989663" lon="7.518243">
        <ele>289.572801</ele>
        <time>2021-11-13T08:33:27.002Z</time>
      </trkpt>
      <trkpt lat="50.989594" lon="7.518129">
        <ele>289.560925</ele>
        <time>2021-11-13T08:33:34.002Z</time>
      </trkpt>
      <trkpt lat="50.989535" lon="7.518005">
        <ele>289.549253</ele>
        <time>2021-11-13T08:33:41.002Z</time>
      </trkpt>
      <trkpt lat="50.989476" lon="7.517888">
        <ele>289.654970</ele>
        <time>2021-11-13T08:33:48.002Z</time>
      </trkpt>
      <trkpt lat="50.989422" lon="7.517752">
        <ele>289.773465</ele>
        <time>2021-11-13T08:33:55.002Z</time>
      </trkpt>
      <trkpt lat="50.989368" lon="7.517631">
        <ele>289.882769</ele>
        <time>2021-11-13T08:34:02.002Z</time>
      </trkpt>
      <trkpt lat="50.989306" lon="7.517505">
        <ele>290.000626</ele>
        <time>2021-11-13T08:34:09.002Z</time>
      </trkpt>
      <trkpt lat="50.989255" lon="7.517379">
        <ele>290.111018</ele>
        <time>2021-11-13T08:34:16.002Z</time>
      </trkpt>
      <trkpt lat="50.989204" lon="7.517255">
        <ele>290.220174</ele>
        <time>2021-11-13T08:34:22.002Z</time>
      </trkpt>
      <trkpt lat="50.989148" lon="7.517125">
        <ele>290.336260</ele>
        <time>2021-11-13T08:34:29.002Z</time>
      </trkpt>
      <trkpt lat="50.989087" lon="7.517015">
        <ele>290.444292</ele>
        <time>2021-11-13T08:34:36.002Z</time>
      </trkpt>
      <trkpt lat="50.989029" lon="7.516891">
        <ele>290.558138</ele>
        <time>2021-11-13T08:34:43.002Z</time>
      </trkpt>
      <trkpt lat="50.988957" lon="7.516790">
        <ele>290.670588</ele>
        <time>2021-11-13T08:34:51.002Z</time>
      </trkpt>
      <trkpt lat="50.988874" lon="7.516714">
        <ele>290.782742</ele>
        <time>2021-11-13T08:35:00.002Z</time>
      </trkpt>
      <trkpt lat="50.988800" lon="7.516614">
        <ele>290.896479</ele>
        <time>2021-11-13T08:35:09.002Z</time>
      </trkpt>
      <trkpt lat="50.988714" lon="7.516532">
        <ele>291.013903</ele>
        <time>2021-11-13T08:35:19.002Z</time>
      </trkpt>
      <trkpt lat="50.988654" lon="7.516415">
        <ele>291.125116</ele>
        <time>2021-11-13T08:35:26.002Z</time>
      </trkpt>
      <trkpt lat="50.988573" lon="7.516323">
        <ele>291.241688</ele>
        <time>2021-11-13T08:35:33.002Z</time>
      </trkpt>
      <trkpt lat="50.988505" lon="7.516226">
        <ele>291.348680</ele>
        <time>2021-11-13T08:35:39.002Z</time>
      </trkpt>
      <trkpt lat="50.988431" lon="7.516126">
        <ele>291.462417</ele>
        <time>2021-11-13T08:35:47.002Z</time>
      </trkpt>
      <trkpt lat="50.988347" lon="7.516040">
        <ele>291.579410</ele>
        <time>2021-11-13T08:35:56.002Z</time>
      </trkpt>
      <trkpt lat="50.988261" lon="7.515971">
        <ele>291.558585</ele>
        <time>2021-11-13T08:36:04.002Z</time>
      </trkpt>
      <trkpt lat="50.988170" lon="7.515947">
        <ele>291.283695</ele>
        <time>2021-11-13T08:36:14.002Z</time>
      </trkpt>
      <trkpt lat="50.988076" lon="7.515929">
        <ele>291.001549</ele>
        <time>2021-11-13T08:36:24.002Z</time>
      </trkpt>
      <trkpt lat="50.988169" lon="7.515888">
        <ele>290.713937</ele>
        <time>2021-11-13T08:36:45.002Z</time>
      </trkpt>
      <trkpt lat="50.988270" lon="7.515915">
        <ele>290.408727</ele>
        <time>2021-11-13T08:36:57.002Z</time>
      </trkpt>
      <trkpt lat="50.988362" lon="7.515967">
        <ele>290.117733</ele>
        <time>2021-11-13T08:37:02.002Z</time>
      </trkpt>
      <trkpt lat="50.988446" lon="7.516046">
        <ele>289.826839</ele>
        <time>2021-11-13T08:37:07.002Z</time>
      </trkpt>
      <trkpt lat="50.988524" lon="7.516126">
        <ele>289.550166</ele>
        <time>2021-11-13T08:37:13.002Z</time>
      </trkpt>
      <trkpt lat="50.988567" lon="7.516258">
        <ele>289.271365</ele>
        <time>2021-11-13T08:37:20.002Z</time>
      </trkpt>
      <trkpt lat="50.988621" lon="7.516384">
        <ele>288.985432</ele>
        <time>2021-11-13T08:37:29.002Z</time>
      </trkpt>
      <trkpt lat="50.988713" lon="7.516443">
        <ele>288.689778</ele>
        <time>2021-11-13T08:37:36.003Z</time>
      </trkpt>
      <trkpt lat="50.988806" lon="7.516504">
        <ele>288.389947</ele>
        <time>2021-11-13T08:37:42.003Z</time>
      </trkpt>
      <trkpt lat="50.988886" lon="7.516602">
        <ele>288.088903</ele>
        <time>2021-11-13T08:37:50.003Z</time>
      </trkpt>
      <trkpt lat="50.988885" lon="7.516450">
        <ele>287.803764</ele>
        <time>2021-11-13T08:38:12.003Z</time>
      </trkpt>
      <trkpt lat="50.988850" lon="7.516314">
        <ele>287.528156</ele>
        <time>2021-11-13T08:38:18.003Z</time>
      </trkpt>
      <trkpt lat="50.988811" lon="7.516174">
        <ele>287.240975</ele>
        <time>2021-11-13T08:38:25.003Z</time>
      </trkpt>
      <trkpt lat="50.988782" lon="7.516037">
        <ele>286.969847</ele>
        <time>2021-11-13T08:38:31.003Z</time>
      </trkpt>
      <trkpt lat="50.988757" lon="7.515891">
        <ele>286.686025</ele>
        <time>2021-11-13T08:38:38.003Z</time>
      </trkpt>
      <trkpt lat="50.988714" lon="7.515762">
        <ele>286.412211</ele>
        <time>2021-11-13T08:38:44.003Z</time>
      </trkpt>
      <trkpt lat="50.988671" lon="7.515625">
        <ele>285.931191</ele>
        <time>2021-11-13T08:38:51.003Z</time>
      </trkpt>
      <trkpt lat="50.988618" lon="7.515504">
        <ele>285.338502</ele>
        <time>2021-11-13T08:38:58.003Z</time>
      </trkpt>
      <trkpt lat="50.988547" lon="7.515403">
        <ele>284.729761</ele>
        <time>2021-11-13T08:39:05.003Z</time>
      </trkpt>
      <trkpt lat="50.988478" lon="7.515287">
        <ele>284.088074</ele>
        <time>2021-11-13T08:39:13.003Z</time>
      </trkpt>
      <trkpt lat="50.988396" lon="7.515193">
        <ele>283.442192</ele>
        <time>2021-11-13T08:39:20.003Z</time>
      </trkpt>
      <trkpt lat="50.988326" lon="7.515091">
        <ele>282.835482</ele>
        <time>2021-11-13T08:39:26.003Z</time>
      </trkpt>
      <trkpt lat="50.988243" lon="7.515019">
        <ele>282.231447</ele>
        <time>2021-11-13T08:39:34.003Z</time>
      </trkpt>
      <trkpt lat="50.988158" lon="7.514925">
        <ele>281.569930</ele>
        <time>2021-11-13T08:39:41.003Z</time>
      </trkpt>
      <trkpt lat="50.988072" lon="7.514870">
        <ele>280.977781</ele>
        <time>2021-11-13T08:39:48.003Z</time>
      </trkpt>
      <trkpt lat="50.987987" lon="7.514784">
        <ele>280.334099</ele>
        <time>2021-11-13T08:39:55.003Z</time>
      </trkpt>
      <trkpt lat="50.987909" lon="7.514681">
        <ele>279.686243</ele>
        <time>2021-11-13T08:39:59.003Z</time>
      </trkpt>
      <trkpt lat="50.987824" lon="7.514612">
        <ele>279.076546</ele>
        <time>2021-11-13T08:40:06.003Z</time>
      </trkpt>
      <trkpt lat="50.987727" lon="7.514588">
        <ele>278.449509</ele>
        <time>2021-11-13T08:40:15.003Z</time>
      </trkpt>
      <trkpt lat="50.987630" lon="7.514530">
        <ele>277.787506</ele>
        <time>2021-11-13T08:40:21.003Z</time>
      </trkpt>
      <trkpt lat="50.987540" lon="7.514530">
        <ele>277.212649</ele>
        <time>2021-11-13T08:40:28.003Z</time>
      </trkpt>
      <trkpt lat="50.987446" lon="7.514550">
        <ele>276.606881</ele>
        <time>2021-11-13T08:40:35.003Z</time>
      </trkpt>
      <trkpt lat="50.987353" lon="7.514604">
        <ele>275.974426</ele>
        <time>2021-11-13T08:40:44.003Z</time>
      </trkpt>
      <trkpt lat="50.987273" lon="7.514675">
        <ele>275.389106</ele>
        <time>2021-11-13T08:40:51.000Z</time>
      </trkpt>
      <trkpt lat="50.987185" lon="7.514766">
        <ele>274.698173</ele>
        <time>2021-11-13T08:40:58.000Z</time>
      </trkpt>
      <trkpt lat="50.987108" lon="7.514870">
        <ele>273.903525</ele>
        <time>2021-11-13T08:41:05.000Z</time>
      </trkpt>
      <trkpt lat="50.987032" lon="7.514965">
        <ele>273.143172</ele>
        <time>2021-11-13T08:41:12.000Z</time>
      </trkpt>
      <trkpt lat="50.986969" lon="7.515079">
        <ele>272.392368</ele>
        <time>2021-11-13T08:41:19.000Z</time>
      </trkpt>
      <trkpt lat="50.986903" lon="7.515201">
        <ele>271.596202</ele>
        <time>2021-11-13T08:41:27.000Z</time>
      </trkpt>
      <trkpt lat="50.986842" lon="7.515333">
        <ele>270.785741</ele>
        <time>2021-11-13T08:41:35.000Z</time>
      </trkpt>
      <trkpt lat="50.986792" lon="7.515461">
        <ele>270.040158</ele>
        <time>2021-11-13T08:41:43.000Z</time>
      </trkpt>
      <trkpt lat="50.986725" lon="7.515576">
        <ele>269.264617</ele>
        <time>2021-11-13T08:41:50.000Z</time>
      </trkpt>
      <trkpt lat="50.986695" lon="7.515716">
        <ele>268.532655</ele>
        <time>2021-11-13T08:41:57.000Z</time>
      </trkpt>
      <trkpt lat="50.986662" lon="7.515862">
        <ele>267.764874</ele>
        <time>2021-11-13T08:42:04.000Z</time>
      </trkpt>
      <trkpt lat="50.986662" lon="7.516019">
        <ele>266.987818</ele>
        <time>2021-11-13T08:42:11.000Z</time>
      </trkpt>
      <trkpt lat="50.986667" lon="7.516168">
        <ele>266.249310</ele>
        <time>2021-11-13T08:42:18.000Z</time>
      </trkpt>
      <trkpt lat="50.986731" lon="7.516285">
        <ele>265.482148</ele>
        <time>2021-11-13T08:42:25.000Z</time>
      </trkpt>
      <trkpt lat="50.986841" lon="7.516387">
        <ele>264.480722</ele>
        <time>2021-11-13T08:42:45.001Z</time>
      </trkpt>
      <trkpt lat="50.986929" lon="7.516442">
        <ele>263.737205</ele>
        <time>2021-11-13T08:42:55.001Z</time>
      </trkpt>
      <trkpt lat="50.986976" lon="7.516585">
        <ele>262.938782</ele>
        <time>2021-11-13T08:43:10.001Z</time>
      </trkpt>
      <trkpt lat="50.987063" lon="7.516646">
        <ele>262.191087</ele>
        <time>2021-11-13T08:43:16.001Z</time>
      </trkpt>
      <trkpt lat="50.987128" lon="7.516760">
        <ele>261.429818</ele>
        <time>2021-11-13T08:43:23.001Z</time>
      </trkpt>
      <trkpt lat="50.987191" lon="7.516886">
        <ele>260.640191</ele>
        <time>2021-11-13T08:43:30.001Z</time>
      </trkpt>
      <trkpt lat="50.987166" lon="7.517032">
        <ele>260.054849</ele>
        <time>2021-11-13T08:43:33.001Z</time>
      </trkpt>
      <trkpt lat="50.987176" lon="7.517199">
        <ele>259.405872</ele>
        <time>2021-11-13T08:43:38.001Z</time>
      </trkpt>
      <trkpt lat="50.987176" lon="7.517343">
        <ele>258.848790</ele>
        <time>2021-11-13T08:43:43.001Z</time>
      </trkpt>
      <trkpt lat="50.987168" lon="7.517497">
        <ele>258.250996</ele>
        <time>2021-11-13T08:43:51.001Z</time>
      </trkpt>
      <trkpt lat="50.987123" lon="7.517624">
        <ele>257.687194</ele>
        <time>2021-11-13T08:43:57.001Z</time>
      </trkpt>
      <trkpt lat="50.987105" lon="7.517769">
        <ele>257.115439</ele>
        <time>2021-11-13T08:44:05.001Z</time>
      </trkpt>
      <trkpt lat="50.987026" lon="7.517876">
        <ele>256.477425</ele>
        <time>2021-11-13T08:44:11.001Z</time>
      </trkpt>
      <trkpt lat="50.986941" lon="7.517955">
        <ele>255.872212</ele>
        <time>2021-11-13T08:44:18.001Z</time>
      </trkpt>
      <trkpt lat="50.986858" lon="7.518040">
        <ele>255.265318</ele>
        <time>2021-11-13T08:44:27.001Z</time>
      </trkpt>
      <trkpt lat="50.986793" lon="7.518163">
        <ele>254.644029</ele>
        <time>2021-11-13T08:44:36.001Z</time>
      </trkpt>
      <trkpt lat="50.986716" lon="7.518279">
        <ele>253.991864</ele>
        <time>2021-11-13T08:44:43.001Z</time>
      </trkpt>
      <trkpt lat="50.986647" lon="7.518394">
        <ele>253.377252</ele>
        <time>2021-11-13T08:44:50.001Z</time>
      </trkpt>
      <trkpt lat="50.986577" lon="7.518490">
        <ele>252.808922</ele>
        <time>2021-11-13T08:44:57.001Z</time>
      </trkpt>
      <trkpt lat="50.986523" lon="7.518607">
        <ele>252.247663</ele>
        <time>2021-11-13T08:45:04.001Z</time>
      </trkpt>
      <trkpt lat="50.986498" lon="7.518803">
        <ele>251.473993</ele>
        <time>2021-11-13T08:45:51.001Z</time>
      </trkpt>
      <trkpt lat="50.986457" lon="7.518942">
        <ele>250.880141</ele>
        <time>2021-11-13T08:45:59.001Z</time>
      </trkpt>
      <trkpt lat="50.986454" lon="7.519093">
        <ele>250.295678</ele>
        <time>2021-11-13T08:46:07.001Z</time>
      </trkpt>
      <trkpt lat="50.986435" lon="7.519244">
        <ele>249.699951</ele>
        <time>2021-11-13T08:46:14.001Z</time>
      </trkpt>
      <trkpt lat="50.986417" lon="7.519385">
        <ele>248.760277</ele>
        <time>2021-11-13T08:46:21.001Z</time>
      </trkpt>
      <trkpt lat="50.986379" lon="7.519522">
        <ele>247.706314</ele>
        <time>2021-11-13T08:46:27.001Z</time>
      </trkpt>
      <trkpt lat="50.986355" lon="7.519660">
        <ele>246.698392</ele>
        <time>2021-11-13T08:46:34.001Z</time>
      </trkpt>
      <trkpt lat="50.986353" lon="7.519826">
        <ele>245.529528</ele>
        <time>2021-11-13T08:46:42.001Z</time>
      </trkpt>
      <trkpt lat="50.986300" lon="7.519949">
        <ele>244.480169</ele>
        <time>2021-11-13T08:46:47.001Z</time>
      </trkpt>
      <trkpt lat="50.986288" lon="7.520107">
        <ele>243.359772</ele>
        <time>2021-11-13T08:46:54.001Z</time>
      </trkpt>
      <trkpt lat="50.986299" lon="7.520258">
        <ele>242.289627</ele>
        <time>2021-11-13T08:47:02.002Z</time>
      </trkpt>
      <trkpt lat="50.986232" lon="7.520381">
        <ele>241.144519</ele>
        <time>2021-11-13T08:47:09.002Z</time>
      </trkpt>
      <trkpt lat="50.986191" lon="7.520519">
        <ele>240.070221</ele>
        <time>2021-11-13T08:47:16.002Z</time>
      </trkpt>
      <trkpt lat="50.986138" lon="7.520640">
        <ele>239.032448</ele>
        <time>2021-11-13T08:47:23.002Z</time>
      </trkpt>
      <trkpt lat="50.986076" lon="7.520750">
        <ele>237.992986</ele>
        <time>2021-11-13T08:47:30.002Z</time>
      </trkpt>
      <trkpt lat="50.986069" lon="7.520893">
        <ele>236.983212</ele>
        <time>2021-11-13T08:47:39.002Z</time>
      </trkpt>
      <trkpt lat="50.986078" lon="7.521053">
        <ele>235.852307</ele>
        <time>2021-11-13T08:47:47.002Z</time>
      </trkpt>
      <trkpt lat="50.986035" lon="7.521186">
        <ele>234.799703</ele>
        <time>2021-11-13T08:47:53.002Z</time>
      </trkpt>
      <trkpt lat="50.985972" lon="7.521299">
        <ele>233.737029</ele>
        <time>2021-11-13T08:47:59.000Z</time>
      </trkpt>
      <trkpt lat="50.985899" lon="7.521399">
        <ele>232.659006</ele>
        <time>2021-11-13T08:48:06.000Z</time>
      </trkpt>
      <trkpt lat="50.985835" lon="7.521521">
        <ele>231.540976</ele>
        <time>2021-11-13T08:48:14.000Z</time>
      </trkpt>
      <trkpt lat="50.985778" lon="7.521658">
        <ele>230.384857</ele>
        <time>2021-11-13T08:48:20.000Z</time>
      </trkpt>
      <trkpt lat="50.985727" lon="7.521781">
        <ele>229.386426</ele>
        <time>2021-11-13T08:48:26.000Z</time>
      </trkpt>
      <trkpt lat="50.985705" lon="7.521938">
        <ele>228.549115</ele>
        <time>2021-11-13T08:48:34.000Z</time>
      </trkpt>
      <trkpt lat="50.985703" lon="7.522095">
        <ele>227.731640</ele>
        <time>2021-11-13T08:48:40.000Z</time>
      </trkpt>
      <trkpt lat="50.985678" lon="7.522244">
        <ele>226.928900</ele>
        <time>2021-11-13T08:48:47.000Z</time>
      </trkpt>
      <trkpt lat="50.985624" lon="7.522373">
        <ele>226.122435</ele>
        <time>2021-11-13T08:48:53.000Z</time>
      </trkpt>
      <trkpt lat="50.985546" lon="7.522465">
        <ele>225.319048</ele>
        <time>2021-11-13T08:48:59.000Z</time>
      </trkpt>
      <trkpt lat="50.985471" lon="7.522572">
        <ele>224.485419</ele>
        <time>2021-11-13T08:49:07.000Z</time>
      </trkpt>
      <trkpt lat="50.985438" lon="7.522720">
        <ele>223.668057</ele>
        <time>2021-11-13T08:49:14.000Z</time>
      </trkpt>
      <trkpt lat="50.985386" lon="7.522852">
        <ele>222.857433</ele>
        <time>2021-11-13T08:49:21.000Z</time>
      </trkpt>
      <trkpt lat="50.985375" lon="7.523001">
        <ele>222.076450</ele>
        <time>2021-11-13T08:49:31.000Z</time>
      </trkpt>
      <trkpt lat="50.985362" lon="7.523151">
        <ele>221.288212</ele>
        <time>2021-11-13T08:49:38.000Z</time>
      </trkpt>
      <trkpt lat="50.985348" lon="7.523308">
        <ele>220.462739</ele>
        <time>2021-11-13T08:49:44.000Z</time>
      </trkpt>
      <trkpt lat="50.985306" lon="7.523450">
        <ele>219.645985</ele>
        <time>2021-11-13T08:49:50.000Z</time>
      </trkpt>
      <trkpt lat="50.985245" lon="7.523576">
        <ele>218.818513</ele>
        <time>2021-11-13T08:49:57.000Z</time>
      </trkpt>
      <trkpt lat="50.985189" lon="7.523701">
        <ele>218.019823</ele>
        <time>2021-11-13T08:50:04.001Z</time>
      </trkpt>
      <trkpt lat="50.985153" lon="7.523857">
        <ele>217.154866</ele>
        <time>2021-11-13T08:50:11.001Z</time>
      </trkpt>
      <trkpt lat="50.985116" lon="7.524003">
        <ele>216.335537</ele>
        <time>2021-11-13T08:50:18.001Z</time>
      </trkpt>
      <trkpt lat="50.985045" lon="7.524103">
        <ele>215.550847</ele>
        <time>2021-11-13T08:50:23.001Z</time>
      </trkpt>
      <trkpt lat="50.985034" lon="7.524249">
        <ele>214.785368</ele>
        <time>2021-11-13T08:50:31.001Z</time>
      </trkpt>
      <trkpt lat="50.985012" lon="7.524406">
        <ele>213.854860</ele>
        <time>2021-11-13T08:50:39.001Z</time>
      </trkpt>
      <trkpt lat="50.984945" lon="7.524528">
        <ele>212.895446</ele>
        <time>2021-11-13T08:50:45.001Z</time>
      </trkpt>
      <trkpt lat="50.984906" lon="7.524667">
        <ele>211.993620</ele>
        <time>2021-11-13T08:50:51.001Z</time>
      </trkpt>
      <trkpt lat="50.984943" lon="7.524824">
        <ele>211.000178</ele>
        <time>2021-11-13T08:50:59.001Z</time>
      </trkpt>
      <trkpt lat="50.984901" lon="7.524960">
        <ele>210.102487</ele>
        <time>2021-11-13T08:51:05.001Z</time>
      </trkpt>
      <trkpt lat="50.984869" lon="7.525107">
        <ele>209.180750</ele>
        <time>2021-11-13T08:51:11.001Z</time>
      </trkpt>
      <trkpt lat="50.984845" lon="7.525256">
        <ele>208.269328</ele>
        <time>2021-11-13T08:51:18.001Z</time>
      </trkpt>
      <trkpt lat="50.984826" lon="7.525414">
        <ele>207.316086</ele>
        <time>2021-11-13T08:51:26.001Z</time>
      </trkpt>
      <trkpt lat="50.984827" lon="7.525565">
        <ele>206.421206</ele>
        <time>2021-11-13T08:51:32.001Z</time>
      </trkpt>
      <trkpt lat="50.984806" lon="7.525704">
        <ele>205.574100</ele>
        <time>2021-11-13T08:51:38.001Z</time>
      </trkpt>
      <trkpt lat="50.984830" lon="7.525850">
        <ele>204.679889</ele>
        <time>2021-11-13T08:51:45.001Z</time>
      </trkpt>
      <trkpt lat="50.984787" lon="7.525977">
        <ele>203.825336</ele>
        <time>2021-11-13T08:51:50.001Z</time>
      </trkpt>
      <trkpt lat="50.984749" lon="7.526114">
        <ele>202.938158</ele>
        <time>2021-11-13T08:51:56.001Z</time>
      </trkpt>
      <trkpt lat="50.984684" lon="7.526220">
        <ele>202.061244</ele>
        <time>2021-11-13T08:52:07.001Z</time>
      </trkpt>
      <trkpt lat="50.984599" lon="7.526156">
        <ele>201.175764</ele>
        <time>2021-11-13T08:52:14.001Z</time>
      </trkpt>
      <trkpt lat="50.984499" lon="7.526126">
        <ele>200.217776</ele>
        <time>2021-11-13T08:52:20.001Z</time>
      </trkpt>
      <trkpt lat="50.984407" lon="7.526074">
        <ele>199.298545</ele>
        <time>2021-11-13T08:52:27.001Z</time>
      </trkpt>
      <trkpt lat="50.984319" lon="7.526010">
        <ele>198.387465</ele>
        <time>2021-11-13T08:52:33.001Z</time>
      </trkpt>
      <trkpt lat="50.984233" lon="7.525941">
        <ele>197.391259</ele>
        <time>2021-11-13T08:52:40.001Z</time>
      </trkpt>
      <trkpt lat="50.984153" lon="7.525845">
        <ele>196.045793</ele>
        <time>2021-11-13T08:52:48.001Z</time>
      </trkpt>
      <trkpt lat="50.984140" lon="7.525694">
        <ele>194.758261</ele>
        <time>2021-11-13T08:53:00.001Z</time>
      </trkpt>
      <trkpt lat="50.984190" lon="7.525551">
        <ele>193.376360</ele>
        <time>2021-11-13T08:53:09.001Z</time>
      </trkpt>
      <trkpt lat="50.984203" lon="7.525404">
        <ele>192.122302</ele>
        <time>2021-11-13T08:53:15.001Z</time>
      </trkpt>
      <trkpt lat="50.984252" lon="7.525264">
        <ele>190.769074</ele>
        <time>2021-11-13T08:53:23.001Z</time>
      </trkpt>
      <trkpt lat="50.984277" lon="7.525127">
        <ele>189.564049</ele>
        <time>2021-11-13T08:53:31.001Z</time>
      </trkpt>
      <trkpt lat="50.984273" lon="7.524969">
        <ele>188.228179</ele>
        <time>2021-11-13T08:53:37.001Z</time>
      </trkpt>
      <trkpt lat="50.984185" lon="7.524928">
        <ele>186.997512</ele>
        <time>2021-11-13T08:53:50.001Z</time>
      </trkpt>
      <trkpt lat="50.984094" lon="7.524895">
        <ele>185.744916</ele>
        <time>2021-11-13T08:53:57.001Z</time>
      </trkpt>
      <trkpt lat="50.984007" lon="7.524822">
        <ele>184.424543</ele>
        <time>2021-11-13T08:54:03.001Z</time>
      </trkpt>
      <trkpt lat="50.983915" lon="7.524783">
        <ele>183.146739</ele>
        <time>2021-11-13T08:54:11.001Z</time>
      </trkpt>
      <trkpt lat="50.983827" lon="7.524744">
        <ele>181.920720</ele>
        <time>2021-11-13T08:54:19.002Z</time>
      </trkpt>
      <trkpt lat="50.983740" lon="7.524702">
        <ele>180.700493</ele>
        <time>2021-11-13T08:54:30.002Z</time>
      </trkpt>
      <trkpt lat="50.983647" lon="7.524657">
        <ele>179.395859</ele>
        <time>2021-11-13T08:54:48.002Z</time>
      </trkpt>
      <trkpt lat="50.983561" lon="7.524590">
        <ele>178.110446</ele>
        <time>2021-11-13T08:55:01.002Z</time>
      </trkpt>
      <trkpt lat="50.983564" lon="7.524425">
        <ele>176.715916</ele>
        <time>2021-11-13T08:55:15.000Z</time>
      </trkpt>
      <trkpt lat="50.983577" lon="7.524281">
        <ele>175.486934</ele>
        <time>2021-11-13T08:55:22.000Z</time>
      </trkpt>
      <trkpt lat="50.983527" lon="7.524144">
        <ele>174.149106</ele>
        <time>2021-11-13T08:55:29.000Z</time>
      </trkpt>
      <trkpt lat="50.983434" lon="7.524089">
        <ele>173.553255</ele>
        <time>2021-11-13T08:55:35.000Z</time>
      </trkpt>
      <trkpt lat="50.983339" lon="7.524094">
        <ele>173.553255</ele>
        <time>2021-11-13T08:55:40.000Z</time>
      </trkpt>
      <trkpt lat="50.983312" lon="7.524249">
        <ele>173.553255</ele>
        <time>2021-11-13T08:55:46.000Z</time>
      </trkpt>
      <trkpt lat="50.983328" lon="7.524399">
        <ele>173.553255</ele>
        <time>2021-11-13T08:55:52.000Z</time>
      </trkpt>
      <trkpt lat="50.983319" lon="7.524552">
        <ele>173.553255</ele>
        <time>2021-11-13T08:55:59.000Z</time>
      </trkpt>
      <trkpt lat="50.983294" lon="7.524698">
        <ele>173.553255</ele>
        <time>2021-11-13T08:56:07.000Z</time>
      </trkpt>
      <trkpt lat="50.983191" lon="7.524737">
        <ele>173.553255</ele>
        <time>2021-11-13T08:56:13.000Z</time>
      </trkpt>
      <trkpt lat="50.983176" lon="7.524886">
        <ele>173.553255</ele>
        <time>2021-11-13T08:56:19.000Z</time>
      </trkpt>
      <trkpt lat="50.983182" lon="7.525040">
        <ele>173.553255</ele>
        <time>2021-11-13T08:56:26.000Z</time>
      </trkpt>
      <trkpt lat="50.983178" lon="7.525192">
        <ele>173.553255</ele>
        <time>2021-11-13T08:56:33.000Z</time>
      </trkpt>
      <trkpt lat="50.983177" lon="7.525340">
        <ele>173.553255</ele>
        <time>2021-11-13T08:56:40.000Z</time>
      </trkpt>
      <trkpt lat="50.983168" lon="7.525493">
        <ele>173.553255</ele>
        <time>2021-11-13T08:56:47.000Z</time>
      </trkpt>
      <trkpt lat="50.983149" lon="7.525641">
        <ele>173.553255</ele>
        <time>2021-11-13T08:56:54.000Z</time>
      </trkpt>
      <trkpt lat="50.983083" lon="7.525766">
        <ele>173.553255</ele>
        <time>2021-11-13T08:57:00.000Z</time>
      </trkpt>
      <trkpt lat="50.983054" lon="7.525901">
        <ele>173.553255</ele>
        <time>2021-11-13T08:57:07.000Z</time>
      </trkpt>
      <trkpt lat="50.983050" lon="7.526044">
        <ele>173.553255</ele>
        <time>2021-11-13T08:57:15.000Z</time>
      </trkpt>
      <trkpt lat="50.983029" lon="7.526186">
        <ele>173.553255</ele>
        <time>2021-11-13T08:57:26.001Z</time>
      </trkpt>
    </trkseg>
  </trk>
</gpx>